< < Back
Terminal Aerodrome Forecast


Current Version              Previous Versions:   1  2  3  4  5  6  7  8  9  

Terminal Aerodrome Forecast

944
FTUS42 KTAE 201700
TAFABY
TAF
KABY 201720Z 2018/2118 04010KT P6SM OVC012
     FM210100 05008KT P6SM BKN020 BKN050
     FM210400 06005KT P6SM SCT050
     FM211500 05007KT P6SM SKC=

Latest METAR

894
SAUS70 KWBC 211500 RRI
MTRABY
METAR KABY 211453Z 06007KT 10SM CLR 20/11 A3018 RMK AO2 SLP219 6////
T02000106 50002


USA.gov is the U.S. government's official web portal to all federal, state and local government web resources and services.